Time;durP1;ratioP1;P1;durP2;ratioP2;P2;SDS_P1;SDS_P2;PMS_P1;PMS_P2;Temp;Humidity;BMP_temperature;BMP_pressure;BME280_temperature;BME280_humidity;BME280_pressure;Samples;Min_cycle;Max_cycle;Signal;HPM_P1;HPM_P2
2021/05/07 00:00:30;;;;;;;9.15;3.63;;;;;;;;;;5095282;28;20391;-66
2021/05/07 00:02:56;;;;;;;6.25;3.20;;;;;;;;;;5099960;28;20020;-66
2021/05/07 00:05:22;;;;;;;7.70;4.25;;;;;;;;;;5114693;28;20038;-66
2021/05/07 00:07:48;;;;;;;6.57;3.55;;;;;;;;;;5096297;28;20099;-65
2021/05/07 00:10:14;;;;;;;9.13;4.18;;;;;;;;;;5098994;28;20103;-65
2021/05/07 00:12:44;;;;;;;6.60;3.53;;;;;;;;;;5095041;28;20091;-65
2021/05/07 00:15:11;;;;;;;5.25;3.50;;;;;;;;;;5094724;28;20494;-66
2021/05/07 00:17:37;;;;;;;9.23;3.72;;;;;;;;;;5096095;28;20024;-65
2021/05/07 00:20:04;;;;;;;6.78;3.83;;;;;;;;;;5112040;28;20034;-66
2021/05/07 00:22:30;;;;;;;8.50;3.80;;;;;;;;;;5106266;28;20047;-66
2021/05/07 00:24:57;;;;;;;6.38;3.30;;;;;;;;;;5098721;28;20097;-66
2021/05/07 00:27:23;;;;;;;9.05;4.60;;;;;;;;;;5098268;28;20444;-66
2021/05/07 00:29:49;;;;;;;4.95;3.63;;;;;;;;;;5094810;28;20028;-66
2021/05/07 00:32:15;;;;;;;6.63;3.30;;;;;;;;;;5098660;28;20020;-64
2021/05/07 00:34:41;;;;;;;10.95;3.40;;;;;;;;;;5103483;28;20496;-66
2021/05/07 00:37:07;;;;;;;6.28;3.20;;;;;;;;;;5114031;28;20477;-65
2021/05/07 00:39:33;;;;;;;6.22;3.83;;;;;;;;;;5102072;28;20032;-66
2021/05/07 00:42:03;;;;;;;5.20;2.92;;;;;;;;;;5101474;28;20019;-65
2021/05/07 00:44:33;;;;;;;4.55;2.88;;;;;;;;;;5100587;28;20036;-66
2021/05/07 00:47:04;;;;;;;5.75;2.95;;;;;;;;;;5098924;28;20374;-65
2021/05/07 00:49:34;;;;;;;5.18;3.80;;;;;;;;;;5094322;28;20024;-65
2021/05/07 00:52:01;;;;;;;4.18;2.90;;;;;;;;;;5106468;28;20023;-62
2021/05/07 00:54:28;;;;;;;4.82;3.13;;;;;;;;;;5099284;28;20482;-65
2021/05/07 00:56:54;;;;;;;5.32;3.30;;;;;;;;;;5094802;28;20117;-66
2021/05/07 00:59:20;;;;;;;7.55;3.05;;;;;;;;;;5106261;28;20375;-66
2021/05/07 01:01:46;;;;;;;7.15;2.80;;;;;;;;;;5103653;28;20501;-66
2021/05/07 01:04:12;;;;;;;5.35;3.22;;;;;;;;;;5097969;28;20059;-65
2021/05/07 01:06:38;;;;;;;5.53;3.05;;;;;;;;;;5107247;28;20030;-66
2021/05/07 01:09:05;;;;;;;6.30;3.28;;;;;;;;;;5102436;28;20040;-66
2021/05/07 01:11:32;;;;;;;6.90;3.00;;;;;;;;;;5095398;28;20031;-66
2021/05/07 01:13:59;;;;;;;4.78;3.05;;;;;;;;;;5096385;28;20055;-66
2021/05/07 01:16:25;;;;;;;4.32;3.05;;;;;;;;;;5107649;28;20056;-66
2021/05/07 01:18:51;;;;;;;7.10;3.00;;;;;;;;;;5106480;28;20032;-66
2021/05/07 01:21:17;;;;;;;7.30;2.85;;;;;;;;;;5086608;28;20111;-66
2021/05/07 01:23:43;;;;;;;8.38;3.53;;;;;;;;;;5096197;28;20110;-66
2021/05/07 01:26:09;;;;;;;3.70;2.75;;;;;;;;;;5106099;28;20038;-66
2021/05/07 01:28:35;;;;;;;9.10;3.58;;;;;;;;;;5093835;28;20020;-66
2021/05/07 01:31:02;;;;;;;7.90;3.10;;;;;;;;;;5094691;28;20099;-65
2021/05/07 01:33:29;;;;;;;10.27;3.70;;;;;;;;;;5107933;28;20027;-66
2021/05/07 01:35:55;;;;;;;8.35;3.55;;;;;;;;;;5106820;28;20077;-65
2021/05/07 01:38:21;;;;;;;5.70;3.00;;;;;;;;;;5093545;28;20452;-65
2021/05/07 01:40:48;;;;;;;7.65;3.30;;;;;;;;;;5093381;28;20056;-65
2021/05/07 01:43:15;;;;;;;6.22;3.80;;;;;;;;;;5097777;28;20064;-65
2021/05/07 01:45:43;;;;;;;5.22;3.40;;;;;;;;;;5093244;28;20399;-65
2021/05/07 01:48:10;;;;;;;7.90;3.92;;;;;;;;;;5107137;28;20594;-65
2021/05/07 01:50:40;;;;;;;5.35;3.90;;;;;;;;;;5104268;28;20020;-65
2021/05/07 01:53:06;;;;;;;6.75;4.07;;;;;;;;;;5093444;28;20103;-66
2021/05/07 01:55:33;;;;;;;6.15;4.10;;;;;;;;;;5093327;28;20111;-65
2021/05/07 01:58:00;;;;;;;6.47;4.45;;;;;;;;;;5093756;28;20024;-65
2021/05/07 02:00:27;;;;;;;8.40;4.90;;;;;;;;;;5096558;28;20079;-65
2021/05/07 02:02:54;;;;;;;8.65;4.15;;;;;;;;;;5093667;28;20027;-66
2021/05/07 02:05:20;;;;;;;8.90;3.55;;;;;;;;;;5095297;28;20498;-65
2021/05/07 02:07:47;;;;;;;6.05;3.20;;;;;;;;;;5104339;28;20429;-66
2021/05/07 02:10:16;;;;;;;7.63;3.55;;;;;;;;;;5105364;28;20042;-66
2021/05/07 02:12:42;;;;;;;6.68;3.33;;;;;;;;;;5097742;28;20024;-66
2021/05/07 02:15:10;;;;;;;7.78;3.75;;;;;;;;;;5092452;28;20024;-65
2021/05/07 02:17:36;;;;;;;5.25;3.50;;;;;;;;;;5102892;28;20020;-63
2021/05/07 02:20:04;;;;;;;6.90;3.45;;;;;;;;;;5100659;28;20151;-67
2021/05/07 02:22:30;;;;;;;8.98;3.38;;;;;;;;;;5092594;28;20567;-65
2021/05/07 02:24:56;;;;;;;8.80;3.72;;;;;;;;;;5107627;28;20038;-65
2021/05/07 02:27:23;;;;;;;6.72;2.65;;;;;;;;;;5092923;28;20089;-65
2021/05/07 02:29:49;;;;;;;6.90;4.00;;;;;;;;;;5094078;28;20062;-66
2021/05/07 02:32:15;;;;;;;20.38;3.53;;;;;;;;;;5107711;28;20035;-65
2021/05/07 02:34:41;;;;;;;7.53;3.80;;;;;;;;;;5104037;28;20470;-66
2021/05/07 02:37:07;;;;;;;6.22;3.13;;;;;;;;;;5102107;28;20036;-66
2021/05/07 02:39:33;;;;;;;6.47;3.25;;;;;;;;;;5096718;28;20102;-66
2021/05/07 02:41:59;;;;;;;10.30;3.75;;;;;;;;;;5103625;28;20023;-66
2021/05/07 02:44:25;;;;;;;6.82;3.25;;;;;;;;;;5107992;28;20031;-66
2021/05/07 02:46:52;;;;;;;6.57;3.65;;;;;;;;;;5116286;28;20028;-65
2021/05/07 02:49:18;;;;;;;5.13;3.17;;;;;;;;;;5105758;28;20118;-65
2021/05/07 02:51:44;;;;;;;6.88;3.85;;;;;;;;;;5108704;28;20028;-66
2021/05/07 02:54:11;;;;;;;8.88;3.83;;;;;;;;;;5111277;28;20055;-65
2021/05/07 02:56:37;;;;;;;8.48;4.00;;;;;;;;;;5106136;28;20024;-65
2021/05/07 02:59:03;;;;;;;6.20;4.57;;;;;;;;;;5097729;28;20031;-66
2021/05/07 03:01:29;;;;;;;7.18;3.72;;;;;;;;;;5101244;28;20055;-66
2021/05/07 03:03:55;;;;;;;6.10;3.33;;;;;;;;;;5097701;28;20024;-66
2021/05/07 03:06:21;;;;;;;9.05;3.45;;;;;;;;;;5096526;28;20020;-65
2021/05/07 03:08:47;;;;;;;7.05;4.18;;;;;;;;;;5102242;28;20394;-66
2021/05/07 03:11:13;;;;;;;5.13;3.30;;;;;;;;;;5111586;28;20022;-65
2021/05/07 03:13:39;;;;;;;4.95;3.35;;;;;;;;;;5103439;28;20031;-66
2021/05/07 03:16:05;;;;;;;7.25;3.28;;;;;;;;;;5081150;28;20046;-66
2021/05/07 03:18:31;;;;;;;9.07;3.35;;;;;;;;;;5102845;28;20032;-65
2021/05/07 03:20:58;;;;;;;4.60;3.47;;;;;;;;;;5115706;28;20126;-64
2021/05/07 03:23:24;;;;;;;6.15;3.35;;;;;;;;;;5099001;28;20034;-65
2021/05/07 03:25:50;;;;;;;8.85;3.22;;;;;;;;;;5103207;28;20022;-66
2021/05/07 03:28:16;;;;;;;10.23;3.95;;;;;;;;;;5104286;28;20020;-65
2021/05/07 03:30:42;;;;;;;7.05;4.00;;;;;;;;;;5098492;28;20031;-66
2021/05/07 03:33:08;;;;;;;6.90;3.50;;;;;;;;;;5102319;28;20028;-65
2021/05/07 03:35:35;;;;;;;8.32;3.58;;;;;;;;;;5107209;28;20426;-66
2021/05/07 03:38:02;;;;;;;4.22;3.42;;;;;;;;;;5104166;28;20591;-66
2021/05/07 03:40:28;;;;;;;7.47;3.53;;;;;;;;;;5095470;28;20383;-67
2021/05/07 03:42:54;;;;;;;5.30;3.08;;;;;;;;;;5106444;28;20028;-65
2021/05/07 03:45:21;;;;;;;8.88;4.05;;;;;;;;;;5092371;28;20115;-64
2021/05/07 03:47:47;;;;;;;5.40;3.33;;;;;;;;;;5107153;28;20059;-66
2021/05/07 03:50:13;;;;;;;7.25;3.55;;;;;;;;;;5112687;28;20028;-67
2021/05/07 03:52:41;;;;;;;12.30;3.70;;;;;;;;;;5099749;28;20081;-66
2021/05/07 03:55:08;;;;;;;8.05;3.35;;;;;;;;;;5104366;28;20027;-66
2021/05/07 03:57:34;;;;;;;7.30;3.00;;;;;;;;;;5112479;28;20028;-66
2021/05/07 04:00:00;;;;;;;5.15;3.55;;;;;;;;;;5112249;28;20035;-65
2021/05/07 04:02:26;;;;;;;6.75;3.60;;;;;;;;;;5099148;28;20028;-66
2021/05/07 04:04:54;;;;;;;5.45;3.50;;;;;;;;;;5111926;28;20038;-65
2021/05/07 04:07:21;;;;;;;6.78;3.15;;;;;;;;;;5111622;28;20054;-64
2021/05/07 04:09:56;;;;;;;7.13;3.80;;;;;;;;;;5095388;28;20111;-65
2021/05/07 04:14:48;;;;;;;8.25;3.90;;;;;;;;;;5096731;28;20056;-65
2021/05/07 04:17:14;;;;;;;8.38;3.20;;;;;;;;;;5109808;28;20528;-65
2021/05/07 04:19:40;;;;;;;9.18;4.30;;;;;;;;;;5098120;28;20056;-64
2021/05/07 04:22:06;;;;;;;5.43;3.58;;;;;;;;;;5096398;28;20026;-65
2021/05/07 04:24:32;;;;;;;7.00;3.15;;;;;;;;;;5100360;28;20095;-65
2021/05/07 04:26:58;;;;;;;7.63;3.20;;;;;;;;;;5096371;28;20103;-66
2021/05/07 04:29:26;;;;;;;5.00;3.00;;;;;;;;;;5094447;28;20491;-65
2021/05/07 04:31:52;;;;;;;5.90;3.20;;;;;;;;;;5106796;28;20024;-65
2021/05/07 04:34:18;;;;;;;8.45;3.08;;;;;;;;;;5108970;28;20039;-66
2021/05/07 04:36:44;;;;;;;5.63;3.13;;;;;;;;;;5109203;28;20091;-65
2021/05/07 04:39:10;;;;;;;9.00;3.45;;;;;;;;;;5095120;28;20032;-66
2021/05/07 04:41:37;;;;;;;6.07;3.58;;;;;;;;;;5108137;28;20382;-64
2021/05/07 04:44:03;;;;;;;8.13;3.50;;;;;;;;;;5104068;28;20031;-67
2021/05/07 04:46:29;;;;;;;7.80;2.85;;;;;;;;;;5096590;28;20021;-66
2021/05/07 04:48:55;;;;;;;4.30;2.83;;;;;;;;;;5098128;28;20028;-66
2021/05/07 04:51:21;;;;;;;7.32;3.00;;;;;;;;;;5094184;28;20103;-67
2021/05/07 04:53:47;;;;;;;6.15;3.53;;;;;;;;;;5101453;28;20020;-66
2021/05/07 04:56:14;;;;;;;5.90;3.03;;;;;;;;;;5108808;28;20023;-65
2021/05/07 04:58:40;;;;;;;4.55;3.22;;;;;;;;;;5112227;28;20100;-64
2021/05/07 05:01:06;;;;;;;5.82;3.20;;;;;;;;;;5106673;28;20081;-66
2021/05/07 05:03:32;;;;;;;6.43;3.92;;;;;;;;;;5097519;28;20040;-65
2021/05/07 05:05:58;;;;;;;8.02;2.90;;;;;;;;;;5096730;28;20063;-65
2021/05/07 05:08:25;;;;;;;8.32;3.17;;;;;;;;;;5104368;28;20506;-66
2021/05/07 05:10:54;;;;;;;6.72;3.08;;;;;;;;;;5094079;28;20436;-65
2021/05/07 05:13:21;;;;;;;6.43;3.20;;;;;;;;;;5096596;28;20415;-66
2021/05/07 05:15:48;;;;;;;5.55;2.90;;;;;;;;;;5107229;28;20074;-65
2021/05/07 05:18:24;;;;;;;8.65;3.35;;;;;;;;;;5107755;28;20039;-65
2021/05/07 05:20:51;;;;;;;10.02;3.72;;;;;;;;;;5095474;28;20487;-66
2021/05/07 05:23:17;;;;;;;4.40;2.50;;;;;;;;;;5093596;28;20461;-66
2021/05/07 05:25:43;;;;;;;7.43;3.47;;;;;;;;;;5093870;28;20035;-65
2021/05/07 05:28:09;;;;;;;5.55;3.22;;;;;;;;;;5098240;28;20115;-66
2021/05/07 05:30:35;;;;;;;11.10;3.63;;;;;;;;;;5093206;28;20020;-66
2021/05/07 05:33:01;;;;;;;3.90;3.20;;;;;;;;;;5103343;28;20103;-66
2021/05/07 05:35:27;;;;;;;10.05;3.38;;;;;;;;;;5098072;28;20097;-65
2021/05/07 05:37:53;;;;;;;8.93;3.83;;;;;;;;;;5092921;28;20020;-64
2021/05/07 05:40:19;;;;;;;9.18;3.15;;;;;;;;;;5093204;28;20543;-65
2021/05/07 05:42:46;;;;;;;9.18;3.45;;;;;;;;;;5111623;28;20024;-65
2021/05/07 05:45:12;;;;;;;6.22;3.70;;;;;;;;;;5101202;28;20103;-65
2021/05/07 05:47:38;;;;;;;6.32;3.10;;;;;;;;;;5092986;28;20016;-66
2021/05/07 05:50:04;;;;;;;8.18;4.28;;;;;;;;;;5093060;28;20062;-66
2021/05/07 05:52:30;;;;;;;10.48;3.95;;;;;;;;;;5092683;28;20024;-65
2021/05/07 05:54:56;;;;;;;8.23;3.60;;;;;;;;;;5092968;28;20035;-65
2021/05/07 05:57:23;;;;;;;9.30;4.35;;;;;;;;;;5094549;28;20386;-66
2021/05/07 05:59:49;;;;;;;10.30;3.70;;;;;;;;;;5112797;28;20055;-66
2021/05/07 06:02:16;;;;;;;6.90;3.63;;;;;;;;;;5101319;28;20586;-66
2021/05/07 06:04:42;;;;;;;8.13;3.58;;;;;;;;;;5104371;28;20044;-65
2021/05/07 06:07:08;;;;;;;6.75;3.55;;;;;;;;;;5106110;28;20058;-65
2021/05/07 06:09:34;;;;;;;6.65;3.90;;;;;;;;;;5108285;28;20038;-65
2021/05/07 06:12:01;;;;;;;7.80;3.30;;;;;;;;;;5106699;28;20057;-65
2021/05/07 06:14:28;;;;;;;5.90;3.10;;;;;;;;;;5106224;28;20054;-64
2021/05/07 06:16:54;;;;;;;7.78;3.38;;;;;;;;;;5099549;28;20088;-65
2021/05/07 06:19:20;;;;;;;8.70;3.97;;;;;;;;;;5103762;28;20039;-65
2021/05/07 06:21:46;;;;;;;7.55;3.20;;;;;;;;;;5096559;28;20531;-65
2021/05/07 06:24:12;;;;;;;7.28;3.70;;;;;;;;;;5089458;28;20036;-64
2021/05/07 06:26:38;;;;;;;13.45;3.30;;;;;;;;;;5091019;28;20095;-66
2021/05/07 06:29:04;;;;;;;9.73;3.75;;;;;;;;;;5096443;28;20031;-64
2021/05/07 06:31:31;;;;;;;9.00;4.00;;;;;;;;;;5093687;28;20036;-66
2021/05/07 06:33:57;;;;;;;9.85;3.78;;;;;;;;;;5089266;28;20127;-66
2021/05/07 06:36:23;;;;;;;5.97;3.22;;;;;;;;;;5093406;28;20036;-64
2021/05/07 06:38:50;;;;;;;6.75;3.17;;;;;;;;;;5092468;28;20032;-66
2021/05/07 06:41:17;;;;;;;8.50;3.30;;;;;;;;;;5089013;28;20032;-65
2021/05/07 06:43:43;;;;;;;7.05;3.40;;;;;;;;;;5101607;28;20039;-65
2021/05/07 06:46:09;;;;;;;8.68;3.67;;;;;;;;;;5106523;28;20024;-64
2021/05/07 06:48:35;;;;;;;9.02;3.38;;;;;;;;;;5092579;28;20028;-65
2021/05/07 06:51:01;;;;;;;7.15;3.63;;;;;;;;;;5089527;28;20058;-65
2021/05/07 06:53:27;;;;;;;8.27;4.35;;;;;;;;;;5099664;28;20638;-65
2021/05/07 06:55:53;;;;;;;9.68;3.33;;;;;;;;;;5096337;28;20031;-65
2021/05/07 06:58:19;;;;;;;6.63;3.65;;;;;;;;;;5094910;28;20044;-66
2021/05/07 07:00:45;;;;;;;6.78;3.53;;;;;;;;;;5094459;28;20032;-65
2021/05/07 07:03:12;;;;;;;5.40;3.03;;;;;;;;;;5101166;28;20035;-66
2021/05/07 07:05:38;;;;;;;10.25;3.20;;;;;;;;;;5103192;28;20024;-67
2021/05/07 07:08:05;;;;;;;8.02;3.05;;;;;;;;;;5095953;28;20055;-66
2021/05/07 07:10:31;;;;;;;6.38;3.80;;;;;;;;;;5091166;28;20028;-66
2021/05/07 07:12:57;;;;;;;7.35;3.30;;;;;;;;;;5097580;28;20032;-69
2021/05/07 07:15:23;;;;;;;7.97;3.10;;;;;;;;;;5106934;28;20052;-67
2021/05/07 07:17:49;;;;;;;6.13;2.80;;;;;;;;;;5093244;28;20028;-67
2021/05/07 07:20:15;;;;;;;5.63;3.00;;;;;;;;;;5100204;28;20028;-66
2021/05/07 07:22:41;;;;;;;9.00;3.40;;;;;;;;;;5096236;28;20035;-67
2021/05/07 07:25:10;;;;;;;7.80;3.08;;;;;;;;;;5098172;28;20043;-65
2021/05/07 07:27:36;;;;;;;4.80;3.45;;;;;;;;;;5104776;28;20024;-66
2021/05/07 07:30:02;;;;;;;8.82;3.25;;;;;;;;;;5100986;28;20030;-66
2021/05/07 07:32:28;;;;;;;6.38;2.92;;;;;;;;;;5100088;28;20055;-68
2021/05/07 07:34:59;;;;;;;6.45;3.35;;;;;;;;;;5102765;28;20035;-67
2021/05/07 07:37:25;;;;;;;6.47;3.78;;;;;;;;;;5105388;28;20043;-67
2021/05/07 07:39:51;;;;;;;7.70;3.63;;;;;;;;;;5103183;28;20386;-68
2021/05/07 07:42:17;;;;;;;5.35;2.92;;;;;;;;;;5102787;28;20055;-67
2021/05/07 07:44:43;;;;;;;7.35;3.70;;;;;;;;;;5100876;28;20043;-66
2021/05/07 07:47:09;;;;;;;5.78;3.70;;;;;;;;;;5099074;28;20024;-66
2021/05/07 07:49:35;;;;;;;5.20;3.05;;;;;;;;;;5107410;28;20024;-67
2021/05/07 07:52:01;;;;;;;5.18;3.42;;;;;;;;;;5105372;28;20043;-66
2021/05/07 07:54:27;;;;;;;6.15;3.15;;;;;;;;;;5101657;28;20389;-67
2021/05/07 07:56:53;;;;;;;12.75;3.70;;;;;;;;;;5104568;28;20027;-67
2021/05/07 07:59:20;;;;;;;5.75;2.80;;;;;;;;;;5104166;28;20027;-66
2021/05/07 08:01:46;;;;;;;6.05;2.70;;;;;;;;;;5105353;28;20813;-67
2021/05/07 08:04:16;;;;;;;6.38;3.08;;;;;;;;;;5105514;28;20031;-66
2021/05/07 08:06:42;;;;;;;6.75;3.10;;;;;;;;;;5104847;28;20031;-66
2021/05/07 08:09:08;;;;;;;5.07;2.70;;;;;;;;;;5092465;28;20103;-67
2021/05/07 08:11:34;;;;;;;6.88;2.60;;;;;;;;;;5105123;28;20043;-66
2021/05/07 08:14:00;;;;;;;10.48;2.72;;;;;;;;;;5106974;28;20109;-65
2021/05/07 08:16:29;;;;;;;7.78;3.00;;;;;;;;;;5096904;28;20044;-66
2021/05/07 08:18:55;;;;;;;6.88;3.20;;;;;;;;;;5109258;28;20455;-68
2021/05/07 08:21:23;;;;;;;9.18;3.33;;;;;;;;;;5106145;28;20126;-67
2021/05/07 08:23:50;;;;;;;4.88;3.35;;;;;;;;;;5106263;28;20038;-65
2021/05/07 08:26:16;;;;;;;6.95;3.30;;;;;;;;;;5103721;28;20023;-65
2021/05/07 08:28:42;;;;;;;6.43;3.17;;;;;;;;;;5103410;28;20024;-67
2021/05/07 08:31:08;;;;;;;7.65;3.67;;;;;;;;;;5104253;28;20031;-67
2021/05/07 08:33:34;;;;;;;5.00;2.92;;;;;;;;;;5096797;28;20076;-67
2021/05/07 08:36:00;;;;;;;9.90;2.90;;;;;;;;;;5100847;28;20103;-67
2021/05/07 08:38:26;;;;;;;6.45;2.60;;;;;;;;;;5104695;28;20393;-67
2021/05/07 08:40:52;;;;;;;4.65;2.78;;;;;;;;;;5110216;28;20106;-66
2021/05/07 08:43:19;;;;;;;6.82;2.90;;;;;;;;;;5108558;28;20028;-67
2021/05/07 08:45:46;;;;;;;5.10;2.60;;;;;;;;;;5090801;28;20068;-67
2021/05/07 08:48:13;;;;;;;7.38;2.65;;;;;;;;;;5097648;28;20028;-68
2021/05/07 08:50:39;;;;;;;9.25;2.67;;;;;;;;;;5110472;28;20034;-67
2021/05/07 08:53:05;;;;;;;6.60;2.95;;;;;;;;;;5099045;28;20051;-66
2021/05/07 08:55:31;;;;;;;8.07;2.60;;;;;;;;;;5100190;28;20390;-65
2021/05/07 08:57:57;;;;;;;7.30;2.35;;;;;;;;;;5102341;28;20028;-65
2021/05/07 09:00:23;;;;;;;7.75;2.90;;;;;;;;;;5104794;28;20118;-66
2021/05/07 09:02:49;;;;;;;4.57;2.70;;;;;;;;;;5102028;28;20028;-67
2021/05/07 09:05:16;;;;;;;4.22;2.30;;;;;;;;;;5098165;28;20059;-64
2021/05/07 09:07:54;;;;;;;9.70;3.03;;;;;;;;;;5097133;28;20028;-66
2021/05/07 09:10:30;;;;;;;6.30;2.55;;;;;;;;;;5100559;28;20035;-67
2021/05/07 09:12:56;;;;;;;7.45;2.40;;;;;;;;;;5106128;28;20035;-67
2021/05/07 09:15:22;;;;;;;4.35;2.25;;;;;;;;;;5099063;28;20105;-69
2021/05/07 09:17:48;;;;;;;6.45;2.25;;;;;;;;;;5099864;28;20051;-66
2021/05/07 09:20:15;;;;;;;5.07;2.45;;;;;;;;;;5102653;28;20128;-65
2021/05/07 09:22:42;;;;;;;5.28;1.60;;;;;;;;;;5102870;28;20031;-67
2021/05/07 09:25:10;;;;;;;4.00;2.80;;;;;;;;;;5099496;28;20524;-67
2021/05/07 09:27:36;;;;;;;7.18;2.28;;;;;;;;;;5107139;28;20039;-67
2021/05/07 09:30:05;;;;;;;3.17;2.10;;;;;;;;;;5105197;28;20028;-66
2021/05/07 09:32:33;;;;;;;3.42;2.28;;;;;;;;;;5072986;28;20059;-67
2021/05/07 09:35:10;;;;;;;3.15;1.90;;;;;;;;;;5100834;28;20028;-66
2021/05/07 09:37:36;;;;;;;2.42;2.17;;;;;;;;;;5095923;28;20031;-65
2021/05/07 09:40:28;;;;;;;5.00;2.00;;;;;;;;;;5100023;28;20027;-67
2021/05/07 09:43:11;;;;;;;4.63;2.28;;;;;;;;;;5090978;28;20050;-66
2021/05/07 09:45:42;;;;;;;2.90;1.70;;;;;;;;;;5100300;28;20035;-66
2021/05/07 09:48:23;;;;;;;2.83;1.83;;;;;;;;;;5099001;28;20364;-67
2021/05/07 09:50:50;;;;;;;5.28;2.20;;;;;;;;;;5098077;28;20486;-66
2021/05/07 09:53:17;;;;;;;5.78;2.28;;;;;;;;;;5096007;28;20043;-67
2021/05/07 09:55:44;;;;;;;7.38;2.65;;;;;;;;;;5105099;28;20047;-67
2021/05/07 09:58:10;;;;;;;4.38;1.90;;;;;;;;;;5099083;28;20039;-66
2021/05/07 10:00:37;;;;;;;2.75;1.80;;;;;;;;;;5098555;28;20027;-66
2021/05/07 10:03:03;;;;;;;4.05;1.90;;;;;;;;;;5097849;28;20059;-66
2021/05/07 10:05:29;;;;;;;2.55;1.70;;;;;;;;;;5097485;28;20107;-66
2021/05/07 10:07:58;;;;;;;3.85;1.83;;;;;;;;;;5101105;28;20046;-66
2021/05/07 10:10:31;;;;;;;5.97;1.75;;;;;;;;;;5106018;28;20032;-65
2021/05/07 10:13:00;;;;;;;2.00;1.55;;;;;;;;;;5096437;28;20020;-66
2021/05/07 10:15:30;;;;;;;2.25;1.80;;;;;;;;;;5094064;28;20082;-66
2021/05/07 10:17:56;;;;;;;2.58;1.55;;;;;;;;;;5097706;28;20035;-66
2021/05/07 10:20:30;;;;;;;5.45;2.10;;;;;;;;;;5090546;28;20028;-66
2021/05/07 10:22:56;;;;;;;4.22;2.20;;;;;;;;;;5098095;28;20413;-65
2021/05/07 10:25:23;;;;;;;3.38;2.53;;;;;;;;;;5100355;28;20390;-69
2021/05/07 10:27:52;;;;;;;5.20;2.00;;;;;;;;;;5105368;28;20031;-70
2021/05/07 10:30:22;;;;;;;3.85;2.25;;;;;;;;;;5094286;28;20497;-68
2021/05/07 10:32:55;;;;;;;5.20;2.30;;;;;;;;;;5101916;28;20584;-66
2021/05/07 10:35:32;;;;;;;4.28;2.13;;;;;;;;;;5098610;28;20038;-69
2021/05/07 10:38:08;;;;;;;5.18;1.83;;;;;;;;;;5090778;28;20028;-68
2021/05/07 10:40:34;;;;;;;6.68;2.55;;;;;;;;;;5103511;28;20035;-69
2021/05/07 10:43:00;;;;;;;4.85;2.10;;;;;;;;;;5100072;28;20026;-69
2021/05/07 10:45:42;;;;;;;2.72;2.00;;;;;;;;;;5092884;28;20032;-67
2021/05/07 10:48:14;;;;;;;4.05;2.50;;;;;;;;;;5101479;28;20032;-67
2021/05/07 10:50:40;;;;;;;7.70;2.42;;;;;;;;;;5100816;28;20148;-68
2021/05/07 10:53:07;;;;;;;2.92;1.70;;;;;;;;;;5074988;28;20031;-66
2021/05/07 10:55:34;;;;;;;5.00;2.25;;;;;;;;;;5093257;28;20035;-66
2021/05/07 10:58:06;;;;;;;4.47;2.20;;;;;;;;;;5099997;28;20574;-68
2021/05/07 11:00:37;;;;;;;3.92;1.95;;;;;;;;;;5100224;28;20106;-68
2021/05/07 11:03:04;;;;;;;4.22;1.83;;;;;;;;;;5099839;28;20032;-68
2021/05/07 11:05:36;;;;;;;3.38;1.83;;;;;;;;;;5107373;28;20103;-68
2021/05/07 11:08:03;;;;;;;3.67;1.70;;;;;;;;;;5107352;28;20538;-69
2021/05/07 11:10:29;;;;;;;3.70;2.20;;;;;;;;;;5107551;28;20035;-68
2021/05/07 11:12:56;;;;;;;2.33;1.83;;;;;;;;;;5095753;28;20023;-67
2021/05/07 11:15:22;;;;;;;3.22;1.80;;;;;;;;;;5099069;28;20039;-65
2021/05/07 11:17:58;;;;;;;5.55;1.90;;;;;;;;;;5102105;28;20024;-66
2021/05/07 11:20:33;;;;;;;2.42;2.00;;;;;;;;;;5096470;28;20043;-68
2021/05/07 11:22:59;;;;;;;4.07;1.88;;;;;;;;;;5093375;28;20028;-68
2021/05/07 11:25:25;;;;;;;4.45;1.83;;;;;;;;;;5106817;28;20059;-66
2021/05/07 11:27:52;;;;;;;2.70;1.70;;;;;;;;;;5105684;28;20644;-68
2021/05/07 11:30:18;;;;;;;3.40;2.10;;;;;;;;;;5102816;28;20035;-68
2021/05/07 11:32:44;;;;;;;3.80;1.95;;;;;;;;;;5110722;28;20765;-69
2021/05/07 11:35:11;;;;;;;3.00;1.90;;;;;;;;;;5101256;28;20031;-68
2021/05/07 11:37:38;;;;;;;5.55;1.88;;;;;;;;;;5106650;28;20031;-66
2021/05/07 11:40:07;;;;;;;2.88;1.80;;;;;;;;;;5107508;28;20036;-69
2021/05/07 11:42:35;;;;;;;4.10;2.28;;;;;;;;;;5106992;28;20109;-70
2021/05/07 11:45:02;;;;;;;5.13;2.33;;;;;;;;;;5106207;28;20038;-68
2021/05/07 11:47:29;;;;;;;1.80;1.70;;;;;;;;;;5097474;28;20051;-66
2021/05/07 11:49:55;;;;;;;3.78;2.08;;;;;;;;;;5109487;28;20081;-70
2021/05/07 11:52:31;;;;;;;3.20;1.70;;;;;;;;;;5105732;28;20389;-69
2021/05/07 11:54:58;;;;;;;3.15;2.00;;;;;;;;;;5093177;28;20146;-67
2021/05/07 11:57:24;;;;;;;3.25;1.90;;;;;;;;;;5108662;28;20110;-65
2021/05/07 11:59:50;;;;;;;4.60;2.78;;;;;;;;;;5101153;28;20026;-68
2021/05/07 12:02:23;;;;;;;3.78;2.00;;;;;;;;;;5103226;28;20031;-68
2021/05/07 12:04:50;;;;;;;3.33;1.77;;;;;;;;;;5103127;28;20054;-69
2021/05/07 12:07:30;;;;;;;3.75;1.90;;;;;;;;;;5099025;28;20027;-68
2021/05/07 12:09:57;;;;;;;3.28;2.00;;;;;;;;;;5101878;28;20023;-68
2021/05/07 12:12:24;;;;;;;3.67;2.22;;;;;;;;;;5107954;28;20035;-69
2021/05/07 12:15:00;;;;;;;4.35;2.28;;;;;;;;;;5105334;28;20035;-69
2021/05/07 12:17:26;;;;;;;4.22;2.35;;;;;;;;;;5109634;28;20072;-66
2021/05/07 12:19:59;;;;;;;2.47;1.80;;;;;;;;;;5105048;28;20051;-69
2021/05/07 12:22:26;;;;;;;2.55;2.03;;;;;;;;;;5107426;28;20028;-69
2021/05/07 12:24:52;;;;;;;2.47;1.83;;;;;;;;;;5110298;28;20104;-66
2021/05/07 12:27:28;;;;;;;2.92;2.13;;;;;;;;;;5105667;28;20180;-66
2021/05/07 12:29:54;;;;;;;3.38;1.90;;;;;;;;;;5104751;28;20076;-66
2021/05/07 12:32:23;;;;;;;6.75;2.30;;;;;;;;;;5097142;28;20490;-68
2021/05/07 12:35:02;;;;;;;2.80;2.25;;;;;;;;;;5103737;28;20031;-68
2021/05/07 12:37:38;;;;;;;3.65;1.90;;;;;;;;;;5106283;28;20035;-69
2021/05/07 12:40:04;;;;;;;3.65;2.08;;;;;;;;;;5102683;28;20032;-67
2021/05/07 12:42:30;;;;;;;3.63;2.00;;;;;;;;;;5099067;28;20063;-67
2021/05/07 12:44:56;;;;;;;3.65;1.90;;;;;;;;;;5103338;28;20034;-69
2021/05/07 12:47:23;;;;;;;6.88;4.13;;;;;;;;;;5098991;28;20062;-69
2021/05/07 12:49:49;;;;;;;2.75;2.10;;;;;;;;;;5104727;28;20123;-69
2021/05/07 12:52:15;;;;;;;2.65;2.10;;;;;;;;;;5107957;28;20036;-67
2021/05/07 12:54:41;;;;;;;2.53;1.88;;;;;;;;;;5104004;28;20027;-66
2021/05/07 12:57:07;;;;;;;3.47;2.05;;;;;;;;;;5106098;28;20023;-68
2021/05/07 12:59:33;;;;;;;2.75;2.00;;;;;;;;;;5104471;28;20028;-71
2021/05/07 13:01:59;;;;;;;2.42;2.10;;;;;;;;;;5107657;28;20062;-69
2021/05/07 13:04:25;;;;;;;4.32;2.20;;;;;;;;;;5102796;28;20463;-68
2021/05/07 13:06:51;;;;;;;4.93;1.88;;;;;;;;;;5102887;28;20077;-70
2021/05/07 13:09:17;;;;;;;3.25;2.10;;;;;;;;;;5098525;28;20763;-68
2021/05/07 13:11:43;;;;;;;4.38;2.97;;;;;;;;;;5087897;28;20028;-69
2021/05/07 13:14:10;;;;;;;3.40;2.25;;;;;;;;;;5095636;28;20031;-67
2021/05/07 13:16:36;;;;;;;2.67;1.90;;;;;;;;;;5096648;28;20063;-67
2021/05/07 13:19:02;;;;;;;3.03;1.90;;;;;;;;;;5097784;28;20513;-67
2021/05/07 13:21:29;;;;;;;3.63;1.90;;;;;;;;;;5104194;28;20035;-70
2021/05/07 13:23:56;;;;;;;2.80;2.15;;;;;;;;;;5101023;28;20111;-70
2021/05/07 13:26:22;;;;;;;4.70;2.20;;;;;;;;;;5099537;28;20129;-70
2021/05/07 13:28:49;;;;;;;4.78;2.30;;;;;;;;;;5101573;28;20027;-67
2021/05/07 13:31:15;;;;;;;3.75;2.05;;;;;;;;;;5104578;28;20140;-70
2021/05/07 13:33:41;;;;;;;2.72;1.98;;;;;;;;;;5101506;28;20035;-68
2021/05/07 13:36:07;;;;;;;3.13;2.30;;;;;;;;;;5102746;28;20031;-68
2021/05/07 13:38:35;;;;;;;3.67;2.30;;;;;;;;;;5096878;28;20477;-65
2021/05/07 13:41:01;;;;;;;2.88;2.10;;;;;;;;;;5100259;28;20032;-69
2021/05/07 13:43:27;;;;;;;5.28;2.97;;;;;;;;;;5095040;28;20036;-70
2021/05/07 13:45:53;;;;;;;5.97;2.90;;;;;;;;;;5099838;28;20787;-69
2021/05/07 13:48:20;;;;;;;3.95;2.30;;;;;;;;;;5105125;28;20031;-69
2021/05/07 13:50:46;;;;;;;4.97;2.45;;;;;;;;;;5104145;28;20024;-69
2021/05/07 13:53:12;;;;;;;5.30;2.55;;;;;;;;;;5092547;28;20046;-67
2021/05/07 13:55:38;;;;;;;9.20;2.90;;;;;;;;;;5100431;28;20035;-67
2021/05/07 13:58:04;;;;;;;6.47;2.17;;;;;;;;;;5096532;28;20104;-68
2021/05/07 14:00:30;;;;;;;4.43;2.30;;;;;;;;;;5101431;28;20498;-68
2021/05/07 14:02:56;;;;;;;5.28;2.20;;;;;;;;;;5099077;28;20042;-67
2021/05/07 14:05:23;;;;;;;5.50;2.63;;;;;;;;;;5096018;28;20034;-68
2021/05/07 14:07:51;;;;;;;4.78;2.20;;;;;;;;;;5096098;28;20032;-68
2021/05/07 14:10:18;;;;;;;2.85;1.95;;;;;;;;;;5106091;28;20536;-69
2021/05/07 14:12:44;;;;;;;8.75;2.53;;;;;;;;;;5098532;28;20028;-68
2021/05/07 14:15:12;;;;;;;6.70;2.38;;;;;;;;;;5075981;28;20031;-66
2021/05/07 14:17:38;;;;;;;5.45;2.15;;;;;;;;;;5101471;28;20039;-67
2021/05/07 14:20:05;;;;;;;5.32;2.00;;;;;;;;;;5097961;28;20055;-64
2021/05/07 14:22:31;;;;;;;3.50;2.05;;;;;;;;;;5096665;28;20032;-70
2021/05/07 14:24:57;;;;;;;2.72;1.90;;;;;;;;;;5093155;28;20570;-67
2021/05/07 14:27:23;;;;;;;6.35;2.50;;;;;;;;;;5095593;28;20030;-67
2021/05/07 14:29:49;;;;;;;7.80;3.92;;;;;;;;;;5101741;28;20474;-68
2021/05/07 14:32:15;;;;;;;6.53;3.97;;;;;;;;;;5101810;28;20040;-69
2021/05/07 14:34:41;;;;;;;4.53;3.42;;;;;;;;;;5111922;28;20035;-67
2021/05/07 14:37:08;;;;;;;4.07;2.10;;;;;;;;;;5103339;28;20035;-67
2021/05/07 14:39:35;;;;;;;4.43;2.28;;;;;;;;;;5110500;28;20128;-67
2021/05/07 14:42:01;;;;;;;4.50;2.60;;;;;;;;;;5109265;28;20031;-66
2021/05/07 14:44:27;;;;;;;4.70;2.42;;;;;;;;;;5109591;28;20031;-67